Time;durP1;ratioP1;P1;durP2;ratioP2;P2;SDS_P1;SDS_P2;PMS_P1;PMS_P2;Temp;Humidity;BMP_temperature;BMP_pressure;BME280_temperature;BME280_humidity;BME280_pressure;Samples;Min_cycle;Max_cycle;Signal;HPM_P1;HPM_P2
2023/02/21 02:15:17;;;;;;;42.83;11.85;;;10.70;90.90;;;;;;5047641;28;20462;-57
2023/02/21 02:18:06;;;;;;;40.35;11.55;;;10.70;90.90;;;;;;5047602;28;20041;-57
2023/02/21 02:21:06;;;;;;;49.45;11.95;;;10.60;90.90;;;;;;5046288;28;20087;-57
2023/02/21 02:23:56;;;;;;;43.55;11.52;;;10.60;90.90;;;;;;5046305;28;20056;-57
2023/02/21 02:26:40;;;;;;;51.80;11.65;;;10.60;91.00;;;;;;5029409;28;20022;-57
2023/02/21 02:29:27;;;;;;;50.13;12.27;;;10.60;91.00;;;;;;5046758;28;20053;-57
2023/02/21 02:32:10;;;;;;;36.97;11.52;;;10.60;91.00;;;;;;5047312;28;20486;-57
2023/02/21 02:34:52;;;;;;;44.60;11.43;;;10.50;91.00;;;;;;5045824;28;20053;-57
2023/02/21 02:37:21;;;;;;;42.78;10.98;;;10.50;91.00;;;;;;5045901;28;20025;-57
2023/02/21 02:39:56;;;;;;;35.33;9.98;;;10.40;91.00;;;;;;5047193;28;20033;-57
2023/02/21 02:42:39;;;;;;;45.63;11.32;;;10.50;91.00;;;;;;5045793;28;20038;-57
2023/02/21 02:45:16;;;;;;;38.85;10.27;;;10.40;91.00;;;;;;5030633;28;20061;-57
2023/02/21 02:47:43;;;;;;;37.20;9.98;;;10.40;91.00;;;;;;5029706;28;20040;-57
2023/02/21 02:50:09;;;;;;;34.50;10.18;;;10.40;91.00;;;;;;5029032;28;20125;-57
2023/02/21 02:52:35;;;;;;;33.63;10.48;;;10.30;91.00;;;;;;5028864;28;20033;-57
2023/02/21 02:55:04;;;;;;;32.63;9.60;;;10.30;91.00;;;;;;5028990;28;20045;-57
2023/02/21 02:57:37;;;;;;;32.67;9.82;;;10.40;91.10;;;;;;5045272;28;20076;-57
2023/02/21 03:00:03;;;;;;;31.38;9.77;;;10.30;91.00;;;;;;5014368;28;20029;-57
2023/02/21 03:02:35;;;;;;;25.70;9.82;;;10.30;91.30;;;;;;5028663;28;20148;-57
2023/02/21 03:05:21;;;;;;;26.02;10.35;;;10.20;91.00;;;;;;5045183;28;20014;-57
2023/02/21 03:08:01;;;;;;;35.00;10.90;;;10.20;91.00;;;;;;5046526;28;20029;-57
2023/02/21 03:10:34;;;;;;;33.20;10.13;;;10.20;91.00;;;;;;5029704;28;20083;-57
2023/02/21 03:13:02;;;;;;;32.53;10.48;;;10.20;91.30;;;;;;5045105;28;20033;-57
2023/02/21 03:15:37;;;;;;;40.63;9.68;;;10.20;91.00;;;;;;5044867;28;20400;-57
2023/02/21 03:18:11;;;;;;;33.03;9.88;;;10.10;91.00;;;;;;5045645;28;20029;-57
2023/02/21 03:20:36;;;;;;;31.75;9.60;;;10.10;91.00;;;;;;5045023;28;20056;-57
2023/02/21 03:23:02;;;;;;;27.85;9.80;;;10.10;91.10;;;;;;5028476;28;20048;-57
2023/02/21 03:25:28;;;;;;;28.95;9.43;;;10.00;91.10;;;;;;5028400;28;20037;-57
2023/02/21 03:27:53;;;;;;;25.67;9.05;;;10.00;91.10;;;;;;5044886;28;20033;-57
2023/02/21 03:30:31;;;;;;;27.67;8.60;;;10.00;91.10;;;;;;5028487;28;20025;-57
2023/02/21 03:32:57;;;;;;;30.17;8.32;;;10.00;91.10;;;;;;5030206;28;20044;-57
2023/02/21 03:35:23;;;;;;;29.88;9.40;;;10.00;91.10;;;;;;5044925;28;20026;-57
2023/02/21 03:37:51;;;;;;;31.40;9.40;;;10.00;91.10;;;;;;5028240;28;20033;-57
2023/02/21 03:40:25;;;;;;;23.92;8.43;;;10.00;91.10;;;;;;5043935;28;20025;-57
2023/02/21 03:42:51;;;;;;;23.27;8.30;;;9.90;91.00;;;;;;5044528;28;20029;-57
2023/02/21 03:45:17;;;;;;;21.23;7.97;;;9.90;91.00;;;;;;5044591;28;20034;-57
2023/02/21 03:47:42;;;;;;;21.67;8.15;;;9.90;91.00;;;;;;5045672;28;20040;-57
2023/02/21 03:50:08;;;;;;;22.60;8.75;;;9.90;91.10;;;;;;5044588;28;20029;-57
2023/02/21 03:52:33;;;;;;;21.85;7.72;;;9.90;91.10;;;;;;5044290;28;20044;-57
2023/02/21 03:55:25;;;;;;;20.60;7.88;;;9.90;91.00;;;;;;5045750;28;20023;-57
2023/02/21 03:57:53;;;;;;;15.85;7.43;;;9.90;91.00;;;;;;5044021;28;20040;-57
2023/02/21 04:00:19;;;;;;;23.40;8.13;;;9.90;91.00;;;;;;5045717;28;20064;-57
2023/02/21 04:03:03;;;;;;;20.23;7.32;;;9.80;91.00;;;;;;5044269;28;20029;-57
2023/02/21 04:05:29;;;;;;;22.70;7.78;;;9.80;91.00;;;;;;5045561;28;20049;-57
2023/02/21 04:07:54;;;;;;;19.10;9.50;;;9.80;91.10;;;;;;5045410;28;20038;-57
2023/02/21 04:10:20;;;;;;;21.63;9.65;;;9.80;91.20;;;;;;5044018;28;20025;-57
2023/02/21 04:12:45;;;;;;;19.90;9.18;;;9.80;91.30;;;;;;5043768;28;20116;-57
2023/02/21 04:15:11;;;;;;;19.35;9.23;;;9.80;91.60;;;;;;5045352;28;20124;-57
2023/02/21 04:17:36;;;;;;;22.45;9.15;;;9.70;91.70;;;;;;5043950;28;20030;-57
2023/02/21 04:20:02;;;;;;;21.10;9.18;;;9.70;91.40;;;;;;5043759;28;20063;-57
2023/02/21 04:22:28;;;;;;;17.45;8.23;;;9.70;91.40;;;;;;5043727;28;20033;-57
2023/02/21 04:24:53;;;;;;;18.50;8.35;;;9.70;91.40;;;;;;5043984;28;20018;-57
2023/02/21 04:27:19;;;;;;;17.98;8.45;;;9.70;91.50;;;;;;5043583;28;20044;-57
2023/02/21 04:29:44;;;;;;;31.33;10.32;;;9.70;91.50;;;;;;5043804;28;20026;-57
2023/02/21 04:32:10;;;;;;;29.80;10.38;;;9.70;91.50;;;;;;5044982;28;20107;-57
2023/02/21 04:34:35;;;;;;;32.10;10.98;;;9.70;91.50;;;;;;5043388;28;20055;-57
2023/02/21 04:37:01;;;;;;;18.17;9.32;;;9.70;91.50;;;;;;5045131;28;20029;-57
2023/02/21 04:39:27;;;;;;;31.20;9.35;;;9.60;91.40;;;;;;5044261;28;20033;-57
2023/02/21 04:41:52;;;;;;;46.70;11.23;;;9.60;91.40;;;;;;5045261;28;20032;-57
2023/02/21 04:44:18;;;;;;;33.03;10.98;;;9.70;91.40;;;;;;5043573;28;20030;-57
2023/02/21 04:46:43;;;;;;;38.70;10.75;;;9.60;91.40;;;;;;5043479;28;20476;-57
2023/02/21 04:49:11;;;;;;;28.65;9.65;;;9.60;91.40;;;;;;5044625;28;20489;-57
2023/02/21 04:51:36;;;;;;;24.85;8.77;;;9.60;91.70;;;;;;5044620;28;20025;-57
2023/02/21 04:54:02;;;;;;;30.80;10.02;;;9.60;91.40;;;;;;5044967;28;20077;-57
2023/02/21 04:56:27;;;;;;;31.95;10.02;;;9.60;91.40;;;;;;5043794;28;20446;-57
2023/02/21 04:58:53;;;;;;;30.45;9.38;;;9.60;91.40;;;;;;5043541;28;20034;-57
2023/02/21 05:01:19;;;;;;;26.48;9.18;;;9.60;91.40;;;;;;5043518;28;20040;-57
2023/02/21 05:03:45;;;;;;;23.65;8.73;;;9.60;91.40;;;;;;5026966;28;20057;-57
2023/02/21 05:06:19;;;;;;;25.75;8.48;;;9.60;91.40;;;;;;5043377;28;20041;-57
2023/02/21 05:08:45;;;;;;;31.02;8.18;;;9.60;91.40;;;;;;5043510;28;20041;-57
2023/02/21 05:11:11;;;;;;;37.90;10.13;;;9.50;91.30;;;;;;5044452;28;20029;-57
2023/02/21 05:13:36;;;;;;;47.13;10.20;;;9.50;91.40;;;;;;5044106;28;20041;-56
2023/02/21 05:16:02;;;;;;;34.53;9.38;;;9.50;91.40;;;;;;5044914;28;20032;-57
2023/02/21 05:18:28;;;;;;;26.55;9.25;;;9.50;91.40;;;;;;5043120;28;20053;-57
2023/02/21 05:20:54;;;;;;;26.13;8.02;;;9.50;91.40;;;;;;5043494;28;20022;-55
2023/02/21 05:23:32;;;;;;;32.15;8.40;;;9.50;91.40;;;;;;5043604;28;20410;-55
2023/02/21 05:26:12;;;;;;;29.58;8.60;;;9.50;91.70;;;;;;5043276;28;20044;-55
2023/02/21 05:28:38;;;;;;;35.22;8.98;;;9.50;91.40;;;;;;5010308;28;20117;-55
2023/02/21 05:31:04;;;;;;;22.63;7.85;;;9.40;91.40;;;;;;5026905;28;20113;-55
2023/02/21 05:33:29;;;;;;;30.25;7.93;;;9.40;91.30;;;;;;5042867;28;20140;-55
2023/02/21 05:35:55;;;;;;;29.70;7.78;;;9.40;91.30;;;;;;5044417;28;20030;-55
2023/02/21 05:38:21;;;;;;;28.95;7.63;;;9.40;91.30;;;;;;5043065;28;20052;-55
2023/02/21 05:40:47;;;;;;;28.55;7.60;;;9.40;91.40;;;;;;5042971;28;20076;-55
2023/02/21 05:43:12;;;;;;;16.98;6.63;;;9.40;91.40;;;;;;5044268;28;20033;-55
2023/02/21 05:45:38;;;;;;;26.40;8.05;;;9.40;91.50;;;;;;5042845;28;20021;-55
2023/02/21 05:48:03;;;;;;;23.92;7.63;;;9.30;91.50;;;;;;5042692;28;20087;-55
2023/02/21 05:50:29;;;;;;;26.48;7.72;;;9.30;91.50;;;;;;5044195;28;20072;-55
2023/02/21 05:52:55;;;;;;;23.73;7.95;;;9.30;91.50;;;;;;5042890;28;20041;-55
2023/02/21 05:55:21;;;;;;;23.05;6.78;;;9.40;91.60;;;;;;5026404;28;20018;-55
2023/02/21 05:57:46;;;;;;;20.88;6.28;;;9.30;91.50;;;;;;5026366;28;20033;-55
2023/02/21 06:00:17;;;;;;;24.88;7.03;;;9.40;91.40;;;;;;5042681;28;20022;-55
2023/02/21 06:02:42;;;;;;;19.70;7.28;;;9.30;91.40;;;;;;5044302;28;20045;-55
2023/02/21 06:05:09;;;;;;;24.83;7.40;;;9.30;91.40;;;;;;5029773;28;20018;-55
2023/02/21 06:07:35;;;;;;;24.88;6.82;;;9.30;91.50;;;;;;5046302;28;20479;-55
2023/02/21 06:10:00;;;;;;;17.05;5.95;;;9.30;91.50;;;;;;5047768;28;20117;-55
2023/02/21 06:12:26;;;;;;;31.08;7.43;;;9.30;91.50;;;;;;5046589;28;20072;-54
2023/02/21 06:14:51;;;;;;;18.20;6.93;;;9.20;91.60;;;;;;5046222;28;20021;-55
2023/02/21 06:17:17;;;;;;;17.65;6.05;;;9.20;91.60;;;;;;5046080;28;20057;-55
2023/02/21 06:19:42;;;;;;;18.15;6.57;;;9.20;91.60;;;;;;5045997;28;20527;-55
2023/02/21 06:22:08;;;;;;;13.05;6.00;;;9.20;91.60;;;;;;5029375;28;20496;-55
2023/02/21 06:24:34;;;;;;;15.38;5.38;;;9.20;91.60;;;;;;5029622;28;20185;-55
2023/02/21 06:26:59;;;;;;;14.65;6.30;;;9.20;91.60;;;;;;5047185;28;20030;-55
2023/02/21 06:29:25;;;;;;;20.00;6.05;;;9.20;91.50;;;;;;5047178;28;20029;-55
2023/02/21 06:31:57;;;;;;;16.75;5.57;;;9.20;91.50;;;;;;5047385;28;20030;-55
2023/02/21 06:34:23;;;;;;;13.88;5.55;;;9.20;91.50;;;;;;5045996;28;20041;-55
2023/02/21 06:36:55;;;;;;;18.80;6.00;;;9.20;91.50;;;;;;5029315;28;20029;-55
2023/02/21 06:39:21;;;;;;;13.98;6.15;;;9.10;91.40;;;;;;5045845;28;20036;-55
2023/02/21 06:41:48;;;;;;;18.98;6.10;;;9.20;91.50;;;;;;5046951;28;20021;-55
2023/02/21 06:44:14;;;;;;;18.58;5.95;;;9.20;91.50;;;;;;5045566;28;20041;-55
2023/02/21 06:46:39;;;;;;;19.52;6.32;;;9.20;91.50;;;;;;5047107;28;20030;-55
2023/02/21 06:49:05;;;;;;;18.55;6.15;;;9.20;91.50;;;;;;5046794;28;20057;-55
2023/02/21 06:51:38;;;;;;;15.23;7.03;;;9.10;91.50;;;;;;5029073;28;20033;-55
2023/02/21 06:54:04;;;;;;;19.58;7.07;;;9.10;91.60;;;;;;5028865;28;20033;-55
2023/02/21 06:56:29;;;;;;;20.70;5.70;;;9.10;91.60;;;;;;5045568;28;20040;-55
2023/02/21 06:58:55;;;;;;;13.88;6.18;;;9.10;91.60;;;;;;5028905;28;20457;-55
2023/02/21 07:01:22;;;;;;;15.13;6.13;;;9.10;91.60;;;;;;5045128;28;20022;-55
2023/02/21 07:03:48;;;;;;;16.13;5.95;;;9.10;91.60;;;;;;5046728;28;20044;-55
2023/02/21 07:06:13;;;;;;;15.10;5.43;;;9.20;91.60;;;;;;5045422;28;20026;-55
2023/02/21 07:08:39;;;;;;;12.75;5.25;;;9.00;91.50;;;;;;5045102;28;20093;-55
2023/02/21 07:11:05;;;;;;;14.00;5.88;;;9.10;91.50;;;;;;5045392;28;20036;-55
2023/02/21 07:13:31;;;;;;;14.77;5.40;;;9.00;91.50;;;;;;5045507;28;20037;-55
2023/02/21 07:16:00;;;;;;;13.77;5.85;;;9.00;91.60;;;;;;5028600;28;20026;-55
2023/02/21 07:18:26;;;;;;;15.38;5.82;;;9.00;91.50;;;;;;5045763;28;20433;-55
2023/02/21 07:20:51;;;;;;;18.55;5.18;;;9.00;91.60;;;;;;5046430;28;20013;-55
2023/02/21 07:23:17;;;;;;;13.35;5.03;;;9.00;91.50;;;;;;5046439;28;20128;-55
2023/02/21 07:25:42;;;;;;;19.55;5.32;;;9.00;91.50;;;;;;5044971;28;20150;-55
2023/02/21 07:28:08;;;;;;;14.60;5.18;;;9.00;91.50;;;;;;5046163;28;20148;-55
2023/02/21 07:30:34;;;;;;;12.45;5.57;;;8.90;91.50;;;;;;5044943;28;20040;-55
2023/02/21 07:32:59;;;;;;;12.80;5.18;;;8.90;91.50;;;;;;5044482;28;20053;-55
2023/02/21 07:35:25;;;;;;;17.35;5.43;;;8.90;91.50;;;;;;5044798;28;20083;-55
2023/02/21 07:37:50;;;;;;;12.63;5.72;;;8.90;91.50;;;;;;5044547;28;20029;-55
2023/02/21 07:40:16;;;;;;;12.30;5.20;;;8.90;91.50;;;;;;5045506;28;20040;-55
2023/02/21 07:42:42;;;;;;;10.60;5.15;;;8.90;91.50;;;;;;5045297;28;20037;-55
2023/02/21 07:45:08;;;;;;;12.63;4.90;;;8.90;91.50;;;;;;5044202;28;20049;-55
2023/02/21 07:47:34;;;;;;;8.38;5.10;;;8.90;91.50;;;;;;5044329;28;20099;-55
2023/02/21 07:50:00;;;;;;;11.10;5.07;;;8.90;91.50;;;;;;5044510;28;20025;-55
2023/02/21 07:52:25;;;;;;;13.25;5.18;;;8.90;91.80;;;;;;5044158;28;20067;-55
2023/02/21 07:54:51;;;;;;;9.32;5.20;;;8.90;91.50;;;;;;5044345;28;20030;-55
2023/02/21 07:57:16;;;;;;;8.30;5.00;;;8.80;91.50;;;;;;5045403;28;20029;-54
2023/02/21 07:59:42;;;;;;;13.27;4.95;;;8.90;91.50;;;;;;5044401;28;20105;-55
2023/02/21 08:02:09;;;;;;;11.93;4.70;;;8.90;91.50;;;;;;5044042;28;20033;-55
2023/02/21 08:04:35;;;;;;;14.77;5.38;;;8.90;91.50;;;;;;5044096;28;20025;-55
2023/02/21 08:07:01;;;;;;;12.10;5.47;;;8.80;91.50;;;;;;5043993;28;20036;-55
2023/02/21 08:09:27;;;;;;;17.02;5.57;;;8.90;91.60;;;;;;5043887;28;20445;-55
2023/02/21 08:11:53;;;;;;;25.65;6.18;;;8.80;91.60;;;;;;5043912;28;20036;-55
2023/02/21 08:14:18;;;;;;;14.70;5.90;;;8.80;91.60;;;;;;5043828;28;20029;-55
2023/02/21 08:16:44;;;;;;;29.88;6.60;;;8.90;91.70;;;;;;5045410;28;20332;-55
2023/02/21 08:19:09;;;;;;;20.08;5.88;;;8.90;91.70;;;;;;5043734;28;20038;-55
2023/02/21 08:21:35;;;;;;;40.67;7.72;;;8.90;91.60;;;;;;5043724;28;20017;-55
2023/02/21 08:24:00;;;;;;;193.85;18.08;;;8.90;91.60;;;;;;5043855;28;20029;-55
2023/02/21 08:26:26;;;;;;;40.95;7.85;;;8.90;91.60;;;;;;5043026;28;20362;-55
2023/02/21 08:28:52;;;;;;;51.38;9.15;;;8.90;91.60;;;;;;5043650;28;20040;-55
2023/02/21 08:31:17;;;;;;;35.17;7.20;;;8.90;91.60;;;;;;5045145;28;20139;-55
2023/02/21 08:33:43;;;;;;;24.38;6.38;;;8.90;91.70;;;;;;5043517;28;20048;-55
2023/02/21 08:36:09;;;;;;;32.45;7.35;;;8.90;91.60;;;;;;5043264;28;20048;-55
2023/02/21 08:38:35;;;;;;;39.03;7.43;;;8.90;91.70;;;;;;5044828;28;20029;-55
2023/02/21 08:41:01;;;;;;;32.00;8.02;;;8.80;91.70;;;;;;5043336;28;20025;-55
2023/02/21 08:43:27;;;;;;;40.78;8.68;;;8.80;91.70;;;;;;5044917;28;20199;-55
2023/02/21 08:45:53;;;;;;;58.15;9.52;;;8.80;91.70;;;;;;5044850;28;20378;-55
2023/02/21 08:48:18;;;;;;;51.60;8.63;;;8.90;91.80;;;;;;5043143;28;20107;-55
2023/02/21 08:50:44;;;;;;;49.65;8.52;;;8.90;91.80;;;;;;5044542;28;20040;-55
2023/02/21 08:53:12;;;;;;;78.65;12.57;;;8.90;91.70;;;;;;5026776;28;20037;-55
2023/02/21 08:55:37;;;;;;;81.20;11.75;;;8.90;91.70;;;;;;5040900;28;20030;-55
2023/02/21 08:58:03;;;;;;;54.75;8.45;;;8.90;91.80;;;;;;5044709;28;20052;-55
2023/02/21 09:00:28;;;;;;;42.28;8.45;;;8.90;91.80;;;;;;5026301;28;20025;-55
2023/02/21 09:02:54;;;;;;;54.15;9.35;;;8.90;91.80;;;;;;5043172;28;20049;-55
2023/02/21 09:05:25;;;;;;;48.45;9.75;;;8.90;91.80;;;;;;5041987;28;20026;-55
2023/02/21 09:07:54;;;;;;;60.03;8.98;;;8.90;91.80;;;;;;5043233;28;20358;-55
2023/02/21 09:10:19;;;;;;;48.97;10.00;;;8.90;91.80;;;;;;5042834;28;20028;-55
2023/02/21 09:12:45;;;;;;;52.40;10.95;;;8.90;91.80;;;;;;5042910;28;20438;-55
2023/02/21 09:15:13;;;;;;;41.83;8.40;;;8.90;91.90;;;;;;5043263;28;20029;-55
2023/02/21 09:17:39;;;;;;;40.05;9.60;;;8.90;91.90;;;;;;5043318;28;20025;-55
2023/02/21 09:20:05;;;;;;;46.28;8.30;;;9.00;91.90;;;;;;5050577;28;20032;-55
2023/02/21 09:22:31;;;;;;;44.35;9.00;;;9.00;92.00;;;;;;5054687;28;20029;-55
2023/02/21 09:24:58;;;;;;;42.78;9.05;;;8.90;91.90;;;;;;5044386;28;20025;-55
2023/02/21 09:27:35;;;;;;;52.28;11.25;;;8.90;91.90;;;;;;5043945;28;20041;-55
2023/02/21 09:30:04;;;;;;;60.20;10.20;;;9.00;92.00;;;;;;5027830;28;20109;-55
2023/02/21 09:32:30;;;;;;;52.17;10.52;;;9.00;92.00;;;;;;5042910;28;20088;-55
2023/02/21 09:34:56;;;;;;;51.40;9.73;;;8.90;92.00;;;;;;5043383;28;20022;-55
2023/02/21 09:37:21;;;;;;;62.08;10.95;;;9.00;92.10;;;;;;5036539;28;20061;-55
2023/02/21 09:39:47;;;;;;;47.33;10.32;;;9.00;92.10;;;;;;5046793;28;20049;-55
2023/02/21 09:42:17;;;;;;;61.60;10.43;;;9.00;92.10;;;;;;5046796;28;20021;-55
2023/02/21 09:44:42;;;;;;;45.25;10.32;;;9.00;92.10;;;;;;5045630;28;20033;-55
2023/02/21 09:47:09;;;;;;;72.30;10.68;;;9.00;92.10;;;;;;5055241;28;20362;-55
2023/02/21 09:49:38;;;;;;;68.55;10.65;;;9.00;92.10;;;;;;5066657;28;20067;-55
2023/02/21 09:52:03;;;;;;;50.33;9.82;;;9.10;92.20;;;;;;5031137;28;20045;-55
2023/02/21 09:54:35;;;;;;;59.45;10.13;;;9.10;92.20;;;;;;5046162;28;20359;-55
2023/02/21 09:57:03;;;;;;;62.65;11.18;;;9.10;92.20;;;;;;5047831;28;20021;-55
2023/02/21 09:59:29;;;;;;;68.60;11.18;;;9.10;92.30;;;;;;5066484;28;20494;-55
2023/02/21 10:02:12;;;;;;;85.95;11.90;;;9.10;92.30;;;;;;5048699;28;20017;-55
2023/02/21 10:04:54;;;;;;;83.82;12.07;;;9.10;92.30;;;;;;5046170;28;20045;-55
2023/02/21 10:07:58;;;;;;;70.70;11.07;;;9.20;92.40;;;;;;5037396;28;20041;-55
2023/02/21 10:10:31;;;;;;;55.78;10.98;;;9.20;92.50;;;;;;5008935;28;20065;-55
2023/02/21 10:13:19;;;;;;;65.70;10.85;;;9.20;92.60;;;;;;5045476;28;20129;-55
2023/02/21 10:15:59;;;;;;;57.88;9.63;;;9.20;92.60;;;;;;5045170;28;20029;-55
2023/02/21 10:18:37;;;;;;;74.47;10.77;;;9.20;92.60;;;;;;5045243;28;20034;-55
2023/02/21 10:21:08;;;;;;;56.42;11.13;;;9.30;92.60;;;;;;5044143;28;20071;-55
2023/02/21 10:23:40;;;;;;;91.13;13.23;;;9.20;92.60;;;;;;5033185;28;20129;-55
2023/02/21 10:26:11;;;;;;;99.50;15.48;;;9.30;92.70;;;;;;5050731;28;20037;-55
2023/02/21 10:28:36;;;;;;;65.43;10.68;;;9.30;92.80;;;;;;5033942;28;20085;-55
2023/02/21 10:31:08;;;;;;;67.90;12.20;;;9.40;92.80;;;;;;5048815;28;20021;-55
2023/02/21 10:33:34;;;;;;;91.40;12.52;;;9.40;92.60;;;;;;5031096;28;20405;-55
2023/02/21 10:36:00;;;;;;;66.65;11.60;;;9.40;92.60;;;;;;5029042;28;20022;-55
2023/02/21 10:38:25;;;;;;;94.80;13.68;;;9.40;92.70;;;;;;5047849;28;20037;-55
2023/02/21 10:40:58;;;;;;;100.30;13.65;;;9.40;92.70;;;;;;5044444;28;20022;-55
2023/02/21 10:43:40;;;;;;;90.10;13.05;;;9.50;92.70;;;;;;5018194;28;20045;-55
2023/02/21 10:46:55;;;;;;;88.75;12.60;;;9.50;93.10;;;;;;5038174;28;20087;-55
2023/02/21 10:49:32;;;;;;;85.85;13.77;;;9.50;92.70;;;;;;5031682;28;20069;-55
2023/02/21 10:52:12;;;;;;;56.72;10.13;;;9.50;92.70;;;;;;5048098;28;20036;-55
2023/02/21 10:54:38;;;;;;;81.03;11.95;;;9.50;92.40;;;;;;5030298;28;20040;-55
2023/02/21 10:57:06;;;;;;;65.88;13.23;;;9.50;92.40;;;;;;5044588;28;20108;-55
2023/02/21 10:59:36;;;;;;;75.45;14.35;;;9.60;92.40;;;;;;5038394;28;20041;-55
2023/02/21 11:02:03;;;;;;;80.97;12.88;;;9.60;92.40;;;;;;5048443;28;20030;-55
2023/02/21 11:04:37;;;;;;;74.43;12.02;;;9.60;92.40;;;;;;5042121;28;20037;-55
2023/02/21 11:07:09;;;;;;;82.00;13.88;;;9.60;92.40;;;;;;5043979;28;20442;-55
2023/02/21 11:09:40;;;;;;;100.28;14.93;;;9.60;92.40;;;;;;5037080;28;20217;-54
2023/02/21 11:12:18;;;;;;;84.22;14.80;;;9.60;92.40;;;;;;5062217;28;20025;-55
2023/02/21 11:14:50;;;;;;;77.55;13.32;;;9.70;92.40;;;;;;5046374;28;20075;-55
2023/02/21 11:17:19;;;;;;;106.32;14.27;;;9.70;92.40;;;;;;5044587;28;20028;-55
2023/02/21 11:19:54;;;;;;;113.82;15.88;;;9.70;92.40;;;;;;5044402;28;20021;-55
2023/02/21 11:22:32;;;;;;;;;;;9.80;92.50;;;;;;5057927;28;20026;-55
2023/02/21 11:25:29;;;;;;;63.90;12.38;;;9.80;92.40;;;;;;5045712;28;19913;-55
2023/02/21 11:28:11;;;;;;;166.05;20.27;;;9.80;92.30;;;;;;5027830;28;20041;-55
2023/02/21 11:30:38;;;;;;;132.02;17.30;;;9.80;92.40;;;;;;5039766;28;20133;-55
2023/02/21 11:33:04;;;;;;;110.22;14.90;;;9.80;92.40;;;;;;5030874;28;20099;-55
2023/02/21 11:35:34;;;;;;;92.25;15.20;;;9.90;92.50;;;;;;5027191;28;20116;-55
2023/02/21 11:38:01;;;;;;;118.78;14.85;;;9.90;92.50;;;;;;5045151;28;20045;-55
2023/02/21 11:40:40;;;;;;;102.13;15.10;;;9.90;92.50;;;;;;5027842;28;20021;-55
2023/02/21 11:43:19;;;;;;;79.95;12.40;;;9.90;92.50;;;;;;5046165;28;20068;-55
2023/02/21 11:46:12;;;;;;;83.38;12.88;;;10.00;92.40;;;;;;5044574;28;20505;-55
2023/02/21 11:49:18;;;;;;;86.47;13.40;;;10.00;92.40;;;;;;5044423;28;20041;-55
2023/02/21 11:51:48;;;;;;;68.27;12.90;;;10.00;92.40;;;;;;5044155;28;20450;-55
2023/02/21 11:54:14;;;;;;;76.22;13.02;;;10.10;92.40;;;;;;5043159;28;20292;-55
2023/02/21 11:57:07;;;;;;;83.25;13.45;;;10.10;92.40;;;;;;5009439;28;20067;-55
2023/02/21 11:59:45;;;;;;;53.53;9.82;;;10.10;92.40;;;;;;5042317;28;20029;-55
2023/02/21 12:02:47;;;;;;;54.72;11.27;;;10.10;92.20;;;;;;5026706;28;20085;-55
2023/02/21 12:05:59;;;;;;;99.13;13.07;;;10.20;92.20;;;;;;5040856;28;20041;-55
2023/02/21 12:08:36;;;;;;;75.82;13.50;;;10.20;92.20;;;;;;5043974;28;20192;-55
2023/02/21 12:11:07;;;;;;;93.93;14.63;;;10.30;92.30;;;;;;5030073;28;20021;-55
2023/02/21 12:13:57;;;;;;;93.07;14.20;;;10.20;92.20;;;;;;5042542;28;20103;-55
2023/02/21 12:16:38;;;;;;;124.25;17.90;;;10.30;92.40;;;;;;5025144;28;20030;-55
2023/02/21 12:19:25;;;;;;;104.93;16.27;;;10.30;92.40;;;;;;5044113;28;20013;-55
2023/02/21 12:22:26;;;;;;;125.38;17.15;;;10.40;92.40;;;;;;5041843;28;20030;-54
2023/02/21 12:25:14;;;;;;;137.27;19.08;;;10.40;92.30;;;;;;5041079;28;20049;-55
2023/02/21 12:28:06;;;;;;;127.95;17.20;;;10.50;92.30;;;;;;5026925;28;20026;-55
2023/02/21 12:30:49;;;;;;;94.43;13.48;;;10.50;92.20;;;;;;5023976;28;20041;-55
2023/02/21 12:33:36;;;;;;;99.32;15.52;;;10.50;92.10;;;;;;5030873;28;20227;-55
2023/02/21 12:36:19;;;;;;;102.85;15.68;;;10.50;92.00;;;;;;5042258;28;20029;-55
2023/02/21 12:38:59;;;;;;;100.50;13.73;;;10.60;92.10;;;;;;5024165;28;20148;-55
2023/02/21 12:41:40;;;;;;;75.57;13.20;;;10.60;92.00;;;;;;5039290;28;20446;-55
2023/02/21 12:44:18;;;;;;;85.53;13.20;;;10.60;91.60;;;;;;5038724;28;20033;-55
2023/02/21 12:46:47;;;;;;;66.97;12.05;;;10.60;91.50;;;;;;5075558;28;20029;-53
2023/02/21 12:49:21;;;;;;;62.50;10.77;;;10.70;91.20;;;;;;5047940;28;20460;-55
2023/02/21 12:52:04;;;;;;;62.60;12.10;;;10.70;90.80;;;;;;5051771;28;20063;-55
2023/02/21 12:54:58;;;;;;;58.53;11.15;;;10.80;90.60;;;;;;5047115;28;20155;-55
2023/02/21 12:57:55;;;;;;;63.25;10.43;;;10.90;90.50;;;;;;5043502;28;20068;-55
2023/02/21 13:00:23;;;;;;;51.47;10.20;;;10.90;90.80;;;;;;5041491;28;20093;-55
2023/02/21 13:03:05;;;;;;;50.53;9.90;;;11.00;90.90;;;;;;5042571;28;20033;-55
2023/02/21 13:05:41;;;;;;;55.13;10.32;;;11.00;90.70;;;;;;5049283;28;20052;-55
2023/02/21 13:08:13;;;;;;;57.88;10.07;;;11.10;90.60;;;;;;5050545;28;20030;-55
2023/02/21 13:11:02;;;;;;;35.42;7.75;;;11.10;90.80;;;;;;5059859;28;20025;-55
2023/02/21 13:13:31;;;;;;;39.03;8.63;;;11.20;90.40;;;;;;5035896;28;20052;-55
2023/02/21 13:15:58;;;;;;;40.58;8.25;;;11.20;89.80;;;;;;5055829;28;20037;-55
2023/02/21 13:18:24;;;;;;;42.30;10.50;;;11.30;89.10;;;;;;5035743;28;20026;-55
2023/02/21 13:20:55;;;;;;;54.08;9.60;;;11.30;88.60;;;;;;5048619;28;20026;-55
2023/02/21 13:26:49;;;;;;;83.50;11.77;;;11.50;88.30;;;;;;5061019;28;20043;-55
2023/02/21 13:29:29;;;;;;;88.13;12.25;;;11.50;88.30;;;;;;5035241;28;20074;-55
2023/02/21 13:32:01;;;;;;;71.50;10.75;;;11.60;88.60;;;;;;5039548;28;20042;-55
2023/02/21 13:34:29;;;;;;;75.28;11.68;;;11.60;88.50;;;;;;5044005;28;20052;-55
2023/02/21 13:37:00;;;;;;;79.50;13.15;;;11.70;88.00;;;;;;5032644;28;20017;-55
2023/02/21 13:39:30;;;;;;;67.25;12.38;;;11.70;88.10;;;;;;5043203;28;20040;-55
2023/02/21 13:42:16;;;;;;;87.13;12.65;;;11.80;88.20;;;;;;5055167;28;20036;-55
2023/02/21 13:44:49;;;;;;;71.47;12.55;;;11.80;88.00;;;;;;5056190;28;20063;-55
2023/02/21 13:47:17;;;;;;;106.32;13.38;;;11.80;87.70;;;;;;5039331;28;20112;-55
2023/02/21 13:49:56;;;;;;;93.13;13.73;;;11.90;87.70;;;;;;5048744;28;20049;-55
2023/02/21 13:52:26;;;;;;;56.50;11.43;;;11.90;87.50;;;;;;5042374;28;20025;-55
2023/02/21 13:55:13;;;;;;;86.05;14.13;;;12.00;87.60;;;;;;5044518;28;20085;-55
2023/02/21 13:57:48;;;;;;;99.93;13.93;;;12.00;87.00;;;;;;5046085;28;20029;-55
2023/02/21 14:00:26;;;;;;;86.40;13.50;;;12.10;87.30;;;;;;5043207;28;20084;-55
2023/02/21 14:03:08;;;;;;;128.63;16.30;;;12.10;88.20;;;;;;5047247;28;20031;-55
2023/02/21 14:05:49;;;;;;;80.60;12.43;;;12.10;89.10;;;;;;5047410;28;20030;-55
2023/02/21 14:08:44;;;;;;;89.53;12.88;;;12.20;88.70;;;;;;5047286;28;20021;-55
2023/02/21 14:11:19;;;;;;;72.20;11.75;;;12.20;87.50;;;;;;5048028;28;20052;-55
2023/02/21 14:14:18;;;;;;;86.65;13.07;;;12.20;86.90;;;;;;5053236;28;20047;-55
2023/02/21 14:17:07;;;;;;;84.10;12.75;;;12.30;86.40;;;;;;5030567;28;20038;-55
2023/02/21 14:19:51;;;;;;;96.85;13.20;;;12.30;85.80;;;;;;5045147;28;20036;-55
2023/02/21 14:22:23;;;;;;;98.43;13.98;;;12.40;85.40;;;;;;5029462;28;20073;-55
2023/02/21 14:24:52;;;;;;;111.47;14.98;;;12.40;85.70;;;;;;5011960;28;20053;-55
2023/02/21 14:27:17;;;;;;;90.93;12.38;;;12.40;86.00;;;;;;5029647;28;20021;-55
2023/02/21 14:30:01;;;;;;;75.82;13.52;;;12.50;86.80;;;;;;5047123;28;20033;-55
2023/02/21 14:32:49;;;;;;;97.50;14.70;;;12.50;86.50;;;;;;5046970;28;20029;-55
2023/02/21 14:35:32;;;;;;;73.75;13.05;;;12.50;85.70;;;;;;5039433;28;20028;-55
2023/02/21 14:38:03;;;;;;;110.10;14.88;;;12.60;85.20;;;;;;5054986;28;20095;-55
2023/02/21 14:40:32;;;;;;;111.72;14.85;;;12.60;85.00;;;;;;5033929;28;20033;-55
2023/02/21 14:43:09;;;;;;;114.13;14.98;;;12.70;85.20;;;;;;5046597;28;20021;-55
2023/02/21 14:45:37;;;;;;;93.50;14.27;;;12.70;84.60;;;;;;5046345;28;20060;-55
2023/02/21 14:48:21;;;;;;;104.55;15.93;;;12.80;84.40;;;;;;5028120;28;20026;-55
2023/02/21 14:51:01;;;;;;;98.32;15.32;;;12.80;84.20;;;;;;5048292;28;20029;-55
2023/02/21 14:53:53;;;;;;;137.25;15.95;;;12.90;84.30;;;;;;5056007;28;20051;-55
2023/02/21 14:56:25;;;;;;;102.65;14.65;;;12.90;84.40;;;;;;5059616;28;20087;-55
2023/02/21 14:58:53;;;;;;;120.80;16.15;;;13.00;84.10;;;;;;5060816;28;20358;-55
2023/02/21 15:01:41;;;;;;;95.72;14.52;;;13.00;84.20;;;;;;5044899;28;20034;-55
2023/02/21 15:04:27;;;;;;;83.90;12.85;;;13.00;84.30;;;;;;5044482;28;20033;-55
2023/02/21 15:07:21;;;;;;;123.95;17.00;;;13.10;84.10;;;;;;5032430;28;20042;-55
2023/02/21 15:10:16;;;;;;;77.95;13.25;;;13.10;84.00;;;;;;5052501;28;20036;-55
2023/02/21 15:12:44;;;;;;;83.47;13.35;;;13.10;83.80;;;;;;5056344;28;20021;-56
2023/02/21 15:15:37;;;;;;;83.80;12.13;;;13.10;83.30;;;;;;5035313;28;20036;-55
2023/02/21 15:18:05;;;;;;;77.95;13.82;;;13.20;83.20;;;;;;5048912;28;20029;-55
2023/02/21 15:20:33;;;;;;;98.05;14.65;;;13.20;83.30;;;;;;5048804;28;20458;-56